sensor_id;sensor_type;location;lat;lon;timestamp;temperature;humidity
13711;DHT22;6927;51.256;9.410;2022-07-23T00:00:30;16.80;99.90
13711;DHT22;6927;51.256;9.410;2022-07-23T00:02:56;16.80;99.90
13711;DHT22;6927;51.256;9.410;2022-07-23T00:05:21;16.80;99.90
13711;DHT22;6927;51.256;9.410;2022-07-23T00:07:47;16.80;99.90
13711;DHT22;6927;51.256;9.410;2022-07-23T00:10:13;16.80;99.90
13711;DHT22;6927;51.256;9.410;2022-07-23T00:12:39;16.80;99.90
13711;DHT22;6927;51.256;9.410;2022-07-23T00:15:05;16.80;99.90
13711;DHT22;6927;51.256;9.410;2022-07-23T00:17:32;16.80;99.90
13711;DHT22;6927;51.256;9.410;2022-07-23T00:19:57;16.80;99.90
13711;DHT22;6927;51.256;9.410;2022-07-23T00:22:23;16.80;99.90
13711;DHT22;6927;51.256;9.410;2022-07-23T00:24:49;16.80;99.90
13711;DHT22;6927;51.256;9.410;2022-07-23T00:27:14;16.80;99.90
13711;DHT22;6927;51.256;9.410;2022-07-23T00:29:40;16.80;99.90
13711;DHT22;6927;51.256;9.410;2022-07-23T00:32:06;16.70;99.90
13711;DHT22;6927;51.256;9.410;2022-07-23T00:34:31;16.80;99.90
13711;DHT22;6927;51.256;9.410;2022-07-23T00:36:57;16.70;99.90
13711;DHT22;6927;51.256;9.410;2022-07-23T00:39:22;16.70;99.90
13711;DHT22;6927;51.256;9.410;2022-07-23T00:41:49;16.70;99.90
13711;DHT22;6927;51.256;9.410;2022-07-23T00:44:20;16.70;99.90
13711;DHT22;6927;51.256;9.410;2022-07-23T00:46:51;16.70;99.90
13711;DHT22;6927;51.256;9.410;2022-07-23T00:49:19;16.70;99.90
13711;DHT22;6927;51.256;9.410;2022-07-23T00:51:45;16.70;99.90
13711;DHT22;6927;51.256;9.410;2022-07-23T00:54:11;16.70;99.90
13711;DHT22;6927;51.256;9.410;2022-07-23T00:56:37;16.70;99.90
13711;DHT22;6927;51.256;9.410;2022-07-23T00:59:03;16.70;99.90
13711;DHT22;6927;51.256;9.410;2022-07-23T01:01:30;16.70;99.90
13711;DHT22;6927;51.256;9.410;2022-07-23T01:03:56;16.70;99.90
13711;DHT22;6927;51.256;9.410;2022-07-23T01:06:21;16.70;99.90
13711;DHT22;6927;51.256;9.410;2022-07-23T01:08:47;16.70;99.90
13711;DHT22;6927;51.256;9.410;2022-07-23T01:11:13;16.70;99.90
13711;DHT22;6927;51.256;9.410;2022-07-23T01:13:45;16.80;99.90
13711;DHT22;6927;51.256;9.410;2022-07-23T01:16:11;16.70;99.90
13711;DHT22;6927;51.256;9.410;2022-07-23T01:18:36;16.70;99.90
13711;DHT22;6927;51.256;9.410;2022-07-23T01:21:02;16.70;99.90
13711;DHT22;6927;51.256;9.410;2022-07-23T01:23:28;16.70;99.90
13711;DHT22;6927;51.256;9.410;2022-07-23T01:25:54;16.70;99.90
13711;DHT22;6927;51.256;9.410;2022-07-23T01:28:20;16.70;99.90
13711;DHT22;6927;51.256;9.410;2022-07-23T01:30:47;16.70;99.90
13711;DHT22;6927;51.256;9.410;2022-07-23T01:33:13;16.70;99.90
13711;DHT22;6927;51.256;9.410;2022-07-23T01:35:38;16.70;99.90
13711;DHT22;6927;51.256;9.410;2022-07-23T01:38:04;16.70;99.90
13711;DHT22;6927;51.256;9.410;2022-07-23T01:40:29;16.70;99.90
13711;DHT22;6927;51.256;9.410;2022-07-23T01:42:55;16.70;99.90
13711;DHT22;6927;51.256;9.410;2022-07-23T01:45:21;16.60;99.90
13711;DHT22;6927;51.256;9.410;2022-07-23T01:47:47;16.60;99.90
13711;DHT22;6927;51.256;9.410;2022-07-23T01:50:12;16.60;99.90
13711;DHT22;6927;51.256;9.410;2022-07-23T01:52:38;16.50;99.90
13711;DHT22;6927;51.256;9.410;2022-07-23T01:55:04;16.40;99.90
13711;DHT22;6927;51.256;9.410;2022-07-23T01:57:31;16.30;99.90
13711;DHT22;6927;51.256;9.410;2022-07-23T01:59:56;16.20;99.90
13711;DHT22;6927;51.256;9.410;2022-07-23T02:02:22;16.20;99.90
13711;DHT22;6927;51.256;9.410;2022-07-23T02:04:47;16.10;99.90
13711;DHT22;6927;51.256;9.410;2022-07-23T02:07:13;16.00;99.90
13711;DHT22;6927;51.256;9.410;2022-07-23T02:09:38;16.00;99.90
13711;DHT22;6927;51.256;9.410;2022-07-23T02:12:04;16.00;99.90
13711;DHT22;6927;51.256;9.410;2022-07-23T02:14:30;15.90;99.90
13711;DHT22;6927;51.256;9.410;2022-07-23T02:16:55;15.90;99.90
13711;DHT22;6927;51.256;9.410;2022-07-23T02:19:21;15.80;99.90
13711;DHT22;6927;51.256;9.410;2022-07-23T02:21:47;15.80;99.90
13711;DHT22;6927;51.256;9.410;2022-07-23T02:24:13;15.80;99.90
13711;DHT22;6927;51.256;9.410;2022-07-23T02:26:38;15.80;99.90
13711;DHT22;6927;51.256;9.410;2022-07-23T02:29:04;15.70;99.90
13711;DHT22;6927;51.256;9.410;2022-07-23T02:31:30;15.70;99.90
13711;DHT22;6927;51.256;9.410;2022-07-23T02:33:56;15.80;99.90
13711;DHT22;6927;51.256;9.410;2022-07-23T02:36:23;15.80;99.90
13711;DHT22;6927;51.256;9.410;2022-07-23T02:38:48;15.80;99.90
13711;DHT22;6927;51.256;9.410;2022-07-23T02:41:14;15.80;99.90
13711;DHT22;6927;51.256;9.410;2022-07-23T02:43:40;15.70;99.90
13711;DHT22;6927;51.256;9.410;2022-07-23T02:46:05;15.70;99.90
13711;DHT22;6927;51.256;9.410;2022-07-23T02:48:31;15.70;99.90
13711;DHT22;6927;51.256;9.410;2022-07-23T02:50:56;15.70;99.90
13711;DHT22;6927;51.256;9.410;2022-07-23T02:53:23;15.70;99.90
13711;DHT22;6927;51.256;9.410;2022-07-23T02:55:48;15.70;99.90
13711;DHT22;6927;51.256;9.410;2022-07-23T02:58:14;15.70;99.90
13711;DHT22;6927;51.256;9.410;2022-07-23T03:00:40;15.70;99.90
13711;DHT22;6927;51.256;9.410;2022-07-23T03:03:05;15.80;99.90
13711;DHT22;6927;51.256;9.410;2022-07-23T03:05:32;15.80;99.90
13711;DHT22;6927;51.256;9.410;2022-07-23T03:07:57;15.80;99.90
13711;DHT22;6927;51.256;9.410;2022-07-23T03:10:23;15.80;99.90
13711;DHT22;6927;51.256;9.410;2022-07-23T03:12:48;15.90;99.90
13711;DHT22;6927;51.256;9.410;2022-07-23T03:15:14;15.90;99.90
13711;DHT22;6927;51.256;9.410;2022-07-23T03:17:39;15.90;99.90
13711;DHT22;6927;51.256;9.410;2022-07-23T03:20:05;15.90;99.90
13711;DHT22;6927;51.256;9.410;2022-07-23T03:22:31;16.00;99.90
13711;DHT22;6927;51.256;9.410;2022-07-23T03:24:57;16.00;99.90
13711;DHT22;6927;51.256;9.410;2022-07-23T03:27:25;16.00;99.90
13711;DHT22;6927;51.256;9.410;2022-07-23T03:29:53;16.00;99.90
13711;DHT22;6927;51.256;9.410;2022-07-23T03:32:19;15.90;99.90
13711;DHT22;6927;51.256;9.410;2022-07-23T03:34:45;15.90;99.90
13711;DHT22;6927;51.256;9.410;2022-07-23T03:37:11;15.80;99.90
13711;DHT22;6927;51.256;9.410;2022-07-23T03:39:36;15.80;99.90
13711;DHT22;6927;51.256;9.410;2022-07-23T03:42:02;15.80;99.90
13711;DHT22;6927;51.256;9.410;2022-07-23T03:44:28;15.80;99.90
13711;DHT22;6927;51.256;9.410;2022-07-23T03:46:53;15.80;99.90
13711;DHT22;6927;51.256;9.410;2022-07-23T03:49:19;15.80;99.90
13711;DHT22;6927;51.256;9.410;2022-07-23T03:51:44;15.80;99.90
13711;DHT22;6927;51.256;9.410;2022-07-23T03:54:10;15.80;99.90
13711;DHT22;6927;51.256;9.410;2022-07-23T03:56:36;15.80;99.90
13711;DHT22;6927;51.256;9.410;2022-07-23T03:59:02;15.80;99.90
13711;DHT22;6927;51.256;9.410;2022-07-23T04:01:27;15.80;99.90
13711;DHT22;6927;51.256;9.410;2022-07-23T04:03:53;15.70;99.90
13711;DHT22;6927;51.256;9.410;2022-07-23T04:06:18;15.70;99.90
13711;DHT22;6927;51.256;9.410;2022-07-23T04:08:44;15.70;99.90
13711;DHT22;6927;51.256;9.410;2022-07-23T04:11:09;15.70;99.90
13711;DHT22;6927;51.256;9.410;2022-07-23T04:13:35;15.80;99.90
13711;DHT22;6927;51.256;9.410;2022-07-23T04:16:00;15.80;99.90
13711;DHT22;6927;51.256;9.410;2022-07-23T04:18:26;15.80;99.90
13711;DHT22;6927;51.256;9.410;2022-07-23T04:20:52;15.80;99.90
13711;DHT22;6927;51.256;9.410;2022-07-23T04:23:17;15.70;99.90
13711;DHT22;6927;51.256;9.410;2022-07-23T04:25:43;15.70;99.90
13711;DHT22;6927;51.256;9.410;2022-07-23T04:28:09;15.70;99.90
13711;DHT22;6927;51.256;9.410;2022-07-23T04:30:34;15.70;99.90
13711;DHT22;6927;51.256;9.410;2022-07-23T04:33:00;15.70;99.90
13711;DHT22;6927;51.256;9.410;2022-07-23T04:35:26;15.70;99.90
13711;DHT22;6927;51.256;9.410;2022-07-23T04:37:51;15.70;99.90
13711;DHT22;6927;51.256;9.410;2022-07-23T04:40:17;15.70;99.90
13711;DHT22;6927;51.256;9.410;2022-07-23T04:42:42;15.70;99.90
13711;DHT22;6927;51.256;9.410;2022-07-23T04:45:08;15.70;99.90
13711;DHT22;6927;51.256;9.410;2022-07-23T04:47:34;15.70;99.90
13711;DHT22;6927;51.256;9.410;2022-07-23T04:49:59;15.80;99.90
13711;DHT22;6927;51.256;9.410;2022-07-23T04:52:25;15.80;99.90
13711;DHT22;6927;51.256;9.410;2022-07-23T04:54:50;15.90;99.90
13711;DHT22;6927;51.256;9.410;2022-07-23T04:57:16;15.90;99.90
13711;DHT22;6927;51.256;9.410;2022-07-23T04:59:42;15.90;99.90
13711;DHT22;6927;51.256;9.410;2022-07-23T05:02:07;16.00;99.90
13711;DHT22;6927;51.256;9.410;2022-07-23T05:04:33;16.00;99.90
13711;DHT22;6927;51.256;9.410;2022-07-23T05:06:59;16.00;99.90
13711;DHT22;6927;51.256;9.410;2022-07-23T05:09:24;16.00;99.90
13711;DHT22;6927;51.256;9.410;2022-07-23T05:11:50;16.00;99.90
13711;DHT22;6927;51.256;9.410;2022-07-23T05:14:15;16.10;99.90
13711;DHT22;6927;51.256;9.410;2022-07-23T05:16:41;16.20;99.90
13711;DHT22;6927;51.256;9.410;2022-07-23T05:19:07;16.30;99.90
13711;DHT22;6927;51.256;9.410;2022-07-23T05:21:33;16.40;99.90
13711;DHT22;6927;51.256;9.410;2022-07-23T05:23:58;16.50;99.90
13711;DHT22;6927;51.256;9.410;2022-07-23T05:26:24;16.50;99.90
13711;DHT22;6927;51.256;9.410;2022-07-23T05:28:50;16.60;99.90
13711;DHT22;6927;51.256;9.410;2022-07-23T05:31:16;16.70;99.90
13711;DHT22;6927;51.256;9.410;2022-07-23T05:33:42;16.70;99.90
13711;DHT22;6927;51.256;9.410;2022-07-23T05:36:07;16.60;99.90
13711;DHT22;6927;51.256;9.410;2022-07-23T05:38:33;16.60;99.90
13711;DHT22;6927;51.256;9.410;2022-07-23T05:40:58;16.50;99.90
13711;DHT22;6927;51.256;9.410;2022-07-23T05:43:24;16.50;99.90
13711;DHT22;6927;51.256;9.410;2022-07-23T05:45:50;16.70;99.90
13711;DHT22;6927;51.256;9.410;2022-07-23T05:48:16;16.70;99.90
13711;DHT22;6927;51.256;9.410;2022-07-23T05:50:41;16.70;99.90
13711;DHT22;6927;51.256;9.410;2022-07-23T05:53:07;16.70;99.90
13711;DHT22;6927;51.256;9.410;2022-07-23T05:55:33;16.90;99.90
13711;DHT22;6927;51.256;9.410;2022-07-23T05:57:59;16.90;99.90
13711;DHT22;6927;51.256;9.410;2022-07-23T06:00:25;17.10;99.90
13711;DHT22;6927;51.256;9.410;2022-07-23T06:02:51;17.20;99.90
13711;DHT22;6927;51.256;9.410;2022-07-23T06:05:17;17.30;99.90
13711;DHT22;6927;51.256;9.410;2022-07-23T06:07:43;17.40;99.90
13711;DHT22;6927;51.256;9.410;2022-07-23T06:10:09;17.50;99.90
13711;DHT22;6927;51.256;9.410;2022-07-23T06:12:34;17.50;99.90
13711;DHT22;6927;51.256;9.410;2022-07-23T06:15:00;17.70;99.90
13711;DHT22;6927;51.256;9.410;2022-07-23T06:17:25;17.80;99.90
13711;DHT22;6927;51.256;9.410;2022-07-23T06:19:52;18.10;99.90
13711;DHT22;6927;51.256;9.410;2022-07-23T06:22:17;18.00;99.90
13711;DHT22;6927;51.256;9.410;2022-07-23T06:24:43;18.10;99.90
13711;DHT22;6927;51.256;9.410;2022-07-23T06:27:08;18.20;99.90
13711;DHT22;6927;51.256;9.410;2022-07-23T06:29:34;18.30;99.90
13711;DHT22;6927;51.256;9.410;2022-07-23T06:32:00;18.50;99.90
13711;DHT22;6927;51.256;9.410;2022-07-23T06:34:25;18.80;99.90
13711;DHT22;6927;51.256;9.410;2022-07-23T06:36:51;19.20;99.90
13711;DHT22;6927;51.256;9.410;2022-07-23T06:39:17;19.50;99.90
13711;DHT22;6927;51.256;9.410;2022-07-23T06:41:42;19.90;99.90
13711;DHT22;6927;51.256;9.410;2022-07-23T06:44:08;20.00;99.90
13711;DHT22;6927;51.256;9.410;2022-07-23T06:46:34;20.00;99.90
13711;DHT22;6927;51.256;9.410;2022-07-23T06:48:59;19.90;99.90
13711;DHT22;6927;51.256;9.410;2022-07-23T06:51:25;20.00;99.90
13711;DHT22;6927;51.256;9.410;2022-07-23T06:53:50;20.70;99.90
13711;DHT22;6927;51.256;9.410;2022-07-23T06:56:16;21.30;99.90
13711;DHT22;6927;51.256;9.410;2022-07-23T06:58:41;21.80;99.90
13711;DHT22;6927;51.256;9.410;2022-07-23T07:01:07;21.90;99.90
13711;DHT22;6927;51.256;9.410;2022-07-23T07:03:32;21.80;99.90
13711;DHT22;6927;51.256;9.410;2022-07-23T07:05:58;22.50;99.90
13711;DHT22;6927;51.256;9.410;2022-07-23T07:08:24;22.80;99.90
13711;DHT22;6927;51.256;9.410;2022-07-23T07:10:50;23.00;99.90
13711;DHT22;6927;51.256;9.410;2022-07-23T07:13:16;22.90;99.90
13711;DHT22;6927;51.256;9.410;2022-07-23T07:15:41;22.80;99.90
13711;DHT22;6927;51.256;9.410;2022-07-23T07:18:07;22.40;99.90
13711;DHT22;6927;51.256;9.410;2022-07-23T07:20:32;22.70;99.90
13711;DHT22;6927;51.256;9.410;2022-07-23T07:22:58;22.50;99.90
13711;DHT22;6927;51.256;9.410;2022-07-23T07:25:24;22.10;99.90
13711;DHT22;6927;51.256;9.410;2022-07-23T07:27:49;22.50;99.90
13711;DHT22;6927;51.256;9.410;2022-07-23T07:30:15;22.90;99.90
13711;DHT22;6927;51.256;9.410;2022-07-23T07:32:41;22.80;99.90
13711;DHT22;6927;51.256;9.410;2022-07-23T07:35:07;22.60;99.90
13711;DHT22;6927;51.256;9.410;2022-07-23T07:37:33;22.60;99.90
13711;DHT22;6927;51.256;9.410;2022-07-23T07:39:59;23.30;99.90
13711;DHT22;6927;51.256;9.410;2022-07-23T07:42:24;23.60;99.90
13711;DHT22;6927;51.256;9.410;2022-07-23T07:44:50;23.90;99.90
13711;DHT22;6927;51.256;9.410;2022-07-23T07:47:15;24.60;99.90
13711;DHT22;6927;51.256;9.410;2022-07-23T07:49:42;24.70;99.90
13711;DHT22;6927;51.256;9.410;2022-07-23T07:52:08;25.60;99.90
13711;DHT22;6927;51.256;9.410;2022-07-23T07:54:33;26.60;99.90
13711;DHT22;6927;51.256;9.410;2022-07-23T07:56:59;27.90;99.90
13711;DHT22;6927;51.256;9.410;2022-07-23T07:59:24;28.10;99.90
13711;DHT22;6927;51.256;9.410;2022-07-23T08:01:50;28.00;99.90
13711;DHT22;6927;51.256;9.410;2022-07-23T08:04:16;27.20;99.90
13711;DHT22;6927;51.256;9.410;2022-07-23T08:06:41;26.10;99.90
13711;DHT22;6927;51.256;9.410;2022-07-23T08:09:07;25.50;99.90
13711;DHT22;6927;51.256;9.410;2022-07-23T08:11:32;25.70;99.90
13711;DHT22;6927;51.256;9.410;2022-07-23T08:13:58;26.70;99.90
13711;DHT22;6927;51.256;9.410;2022-07-23T08:16:24;27.70;99.90
13711;DHT22;6927;51.256;9.410;2022-07-23T08:18:49;27.70;99.90
13711;DHT22;6927;51.256;9.410;2022-07-23T08:21:15;27.20;99.90
13711;DHT22;6927;51.256;9.410;2022-07-23T08:23:40;26.20;99.90
13711;DHT22;6927;51.256;9.410;2022-07-23T08:26:06;25.60;99.90
13711;DHT22;6927;51.256;9.410;2022-07-23T08:28:32;25.50;99.90
13711;DHT22;6927;51.256;9.410;2022-07-23T08:30:59;26.10;99.90
13711;DHT22;6927;51.256;9.410;2022-07-23T08:33:24;27.00;99.90
13711;DHT22;6927;51.256;9.410;2022-07-23T08:35:51;27.50;99.90
13711;DHT22;6927;51.256;9.410;2022-07-23T08:38:20;27.70;99.90
13711;DHT22;6927;51.256;9.410;2022-07-23T08:40:54;28.20;99.90
13711;DHT22;6927;51.256;9.410;2022-07-23T08:43:21;28.70;99.90
13711;DHT22;6927;51.256;9.410;2022-07-23T08:45:55;29.10;99.90
13711;DHT22;6927;51.256;9.410;2022-07-23T08:48:24;28.40;99.90
13711;DHT22;6927;51.256;9.410;2022-07-23T08:50:52;28.20;99.90
13711;DHT22;6927;51.256;9.410;2022-07-23T08:53:18;28.40;99.90
13711;DHT22;6927;51.256;9.410;2022-07-23T08:55:45;28.50;99.90
13711;DHT22;6927;51.256;9.410;2022-07-23T08:58:11;28.00;99.90
13711;DHT22;6927;51.256;9.410;2022-07-23T09:00:36;27.50;99.90
13711;DHT22;6927;51.256;9.410;2022-07-23T09:03:02;27.40;99.90
13711;DHT22;6927;51.256;9.410;2022-07-23T09:05:28;27.40;99.90
13711;DHT22;6927;51.256;9.410;2022-07-23T09:08:13;26.80;99.90
13711;DHT22;6927;51.256;9.410;2022-07-23T09:13:47;28.40;99.90
13711;DHT22;6927;51.256;9.410;2022-07-23T09:16:27;29.50;99.90
13711;DHT22;6927;51.256;9.410;2022-07-23T09:19:05;29.80;99.90
13711;DHT22;6927;51.256;9.410;2022-07-23T09:21:35;29.20;99.90
13711;DHT22;6927;51.256;9.410;2022-07-23T09:24:07;28.10;99.90
13711;DHT22;6927;51.256;9.410;2022-07-23T09:29:22;27.00;99.90
13711;DHT22;6927;51.256;9.410;2022-07-23T09:34:32;25.70;99.90
13711;DHT22;6927;51.256;9.410;2022-07-23T09:39:43;26.90;99.90
13711;DHT22;6927;51.256;9.410;2022-07-23T09:44:47;25.90;99.90
13711;DHT22;6927;51.256;9.410;2022-07-23T09:47:17;25.20;99.90
13711;DHT22;6927;51.256;9.410;2022-07-23T09:50:02;24.80;99.90
13711;DHT22;6927;51.256;9.410;2022-07-23T09:52:34;25.90;99.90
13711;DHT22;6927;51.256;9.410;2022-07-23T09:55:01;26.60;99.90
13711;DHT22;6927;51.256;9.410;2022-07-23T09:57:33;26.40;99.90
13711;DHT22;6927;51.256;9.410;2022-07-23T10:00:33;26.40;99.90
13711;DHT22;6927;51.256;9.410;2022-07-23T10:03:28;27.50;99.90
13711;DHT22;6927;51.256;9.410;2022-07-23T10:06:13;28.90;99.90
13711;DHT22;6927;51.256;9.410;2022-07-23T10:15:28;29.60;99.90
13711;DHT22;6927;51.256;9.410;2022-07-23T10:18:34;30.50;99.90
13711;DHT22;6927;51.256;9.410;2022-07-23T10:21:06;31.60;99.90
13711;DHT22;6927;51.256;9.410;2022-07-23T10:23:37;31.10;99.90
13711;DHT22;6927;51.256;9.410;2022-07-23T10:26:27;30.20;99.90
13711;DHT22;6927;51.256;9.410;2022-07-23T10:34:41;31.50;99.90
13711;DHT22;6927;51.256;9.410;2022-07-23T10:37:23;31.80;99.90
13711;DHT22;6927;51.256;9.410;2022-07-23T10:40:20;32.00;99.90
13711;DHT22;6927;51.256;9.410;2022-07-23T10:42:48;31.70;99.90
13711;DHT22;6927;51.256;9.410;2022-07-23T10:45:28;31.50;99.90
13711;DHT22;6927;51.256;9.410;2022-07-23T10:47:56;31.80;99.90
13711;DHT22;6927;51.256;9.410;2022-07-23T10:50:36;31.80;99.90
13711;DHT22;6927;51.256;9.410;2022-07-23T10:53:17;31.30;99.90
13711;DHT22;6927;51.256;9.410;2022-07-23T10:55:44;30.40;99.90
13711;DHT22;6927;51.256;9.410;2022-07-23T10:58:12;29.30;99.90
13711;DHT22;6927;51.256;9.410;2022-07-23T11:00:42;28.70;99.90
13711;DHT22;6927;51.256;9.410;2022-07-23T11:03:33;28.20;99.90
13711;DHT22;6927;51.256;9.410;2022-07-23T11:06:01;27.70;99.90
13711;DHT22;6927;51.256;9.410;2022-07-23T11:08:27;27.30;99.90
13711;DHT22;6927;51.256;9.410;2022-07-23T11:10:55;26.80;99.90
13711;DHT22;6927;51.256;9.410;2022-07-23T11:24:09;28.60;99.90
13711;DHT22;6927;51.256;9.410;2022-07-23T11:34:38;29.90;99.90
13711;DHT22;6927;51.256;9.410;2022-07-23T11:37:10;29.40;99.90
13711;DHT22;6927;51.256;9.410;2022-07-23T11:39:37;29.00;99.90
13711;DHT22;6927;51.256;9.410;2022-07-23T11:42:05;28.40;99.90
13711;DHT22;6927;51.256;9.410;2022-07-23T11:44:35;27.80;99.90
13711;DHT22;6927;51.256;9.410;2022-07-23T11:47:04;27.50;99.90
13711;DHT22;6927;51.256;9.410;2022-07-23T11:49:30;27.30;99.90
13711;DHT22;6927;51.256;9.410;2022-07-23T11:52:12;27.20;99.90
13711;DHT22;6927;51.256;9.410;2022-07-23T11:55:10;26.90;99.90
13711;DHT22;6927;51.256;9.410;2022-07-23T11:57:37;26.90;99.90
13711;DHT22;6927;51.256;9.410;2022-07-23T12:02:41;26.80;99.90
13711;DHT22;6927;51.256;9.410;2022-07-23T12:05:07;26.90;99.90
13711;DHT22;6927;51.256;9.410;2022-07-23T12:07:40;26.70;99.90
13711;DHT22;6927;51.256;9.410;2022-07-23T12:10:12;26.50;99.90
13711;DHT22;6927;51.256;9.410;2022-07-23T12:12:41;26.50;99.90
13711;DHT22;6927;51.256;9.410;2022-07-23T12:15:08;26.60;99.90
13711;DHT22;6927;51.256;9.410;2022-07-23T12:17:36;26.70;99.90
13711;DHT22;6927;51.256;9.410;2022-07-23T12:20:05;26.60;99.90
13711;DHT22;6927;51.256;9.410;2022-07-23T12:22:37;26.50;99.90
13711;DHT22;6927;51.256;9.410;2022-07-23T12:25:15;26.50;99.90
13711;DHT22;6927;51.256;9.410;2022-07-23T12:27:41;26.40;99.90
13711;DHT22;6927;51.256;9.410;2022-07-23T12:30:30;26.40;99.90
13711;DHT22;6927;51.256;9.410;2022-07-23T12:32:57;26.40;99.90
13711;DHT22;6927;51.256;9.410;2022-07-23T12:35:39;26.60;99.90
13711;DHT22;6927;51.256;9.410;2022-07-23T12:38:15;26.80;99.90
13711;DHT22;6927;51.256;9.410;2022-07-23T12:40:55;26.80;99.90
13711;DHT22;6927;51.256;9.410;2022-07-23T12:43:22;26.80;99.90
13711;DHT22;6927;51.256;9.410;2022-07-23T12:45:49;26.70;99.90
13711;DHT22;6927;51.256;9.410;2022-07-23T12:48:18;26.60;99.90
13711;DHT22;6927;51.256;9.410;2022-07-23T12:51:02;26.60;99.90
13711;DHT22;6927;51.256;9.410;2022-07-23T12:53:30;26.70;99.90
13711;DHT22;6927;51.256;9.410;2022-07-23T12:56:10;26.60;99.90
13711;DHT22;6927;51.256;9.410;2022-07-23T13:04:07;26.60;99.90
13711;DHT22;6927;51.256;9.410;2022-07-23T13:06:36;26.60;99.90
13711;DHT22;6927;51.256;9.410;2022-07-23T13:09:04;26.60;99.90
13711;DHT22;6927;51.256;9.410;2022-07-23T13:11:30;26.60;99.90
13711;DHT22;6927;51.256;9.410;2022-07-23T13:13:56;26.60;99.90
13711;DHT22;6927;51.256;9.410;2022-07-23T13:16:22;26.50;99.90
13711;DHT22;6927;51.256;9.410;2022-07-23T13:18:47;26.50;99.90
13711;DHT22;6927;51.256;9.410;2022-07-23T13:21:13;26.40;99.90
13711;DHT22;6927;51.256;9.410;2022-07-23T13:23:38;26.40;99.90
13711;DHT22;6927;51.256;9.410;2022-07-23T13:26:04;26.40;99.90
13711;DHT22;6927;51.256;9.410;2022-07-23T13:28:30;26.30;99.90
13711;DHT22;6927;51.256;9.410;2022-07-23T13:30:55;26.30;99.90
13711;DHT22;6927;51.256;9.410;2022-07-23T13:33:23;26.40;99.90
13711;DHT22;6927;51.256;9.410;2022-07-23T13:35:50;26.40;99.90
13711;DHT22;6927;51.256;9.410;2022-07-23T13:38:17;26.40;99.90
13711;DHT22;6927;51.256;9.410;2022-07-23T13:40:45;26.40;99.90
13711;DHT22;6927;51.256;9.410;2022-07-23T13:43:12;26.50;99.90
13711;DHT22;6927;51.256;9.410;2022-07-23T13:45:39;26.60;99.90
13711;DHT22;6927;51.256;9.410;2022-07-23T13:48:07;26.70;99.90
13711;DHT22;6927;51.256;9.410;2022-07-23T13:50:34;26.70;99.90
13711;DHT22;6927;51.256;9.410;2022-07-23T13:53:08;26.80;99.90
13711;DHT22;6927;51.256;9.410;2022-07-23T13:55:35;26.90;99.90
13711;DHT22;6927;51.256;9.410;2022-07-23T13:58:01;26.90;99.90
13711;DHT22;6927;51.256;9.410;2022-07-23T14:00:28;26.80;99.90
13711;DHT22;6927;51.256;9.410;2022-07-23T14:02:55;26.80;99.90
13711;DHT22;6927;51.256;9.410;2022-07-23T14:05:21;26.80;99.90
13711;DHT22;6927;51.256;9.410;2022-07-23T14:07:47;26.70;99.90
13711;DHT22;6927;51.256;9.410;2022-07-23T14:10:16;26.70;99.90
13711;DHT22;6927;51.256;9.410;2022-07-23T14:12:43;26.60;99.90
13711;DHT22;6927;51.256;9.410;2022-07-23T14:15:09;26.40;99.90
13711;DHT22;6927;51.256;9.410;2022-07-23T14:17:40;26.20;99.90
13711;DHT22;6927;51.256;9.410;2022-07-23T14:20:07;26.00;99.90
13711;DHT22;6927;51.256;9.410;2022-07-23T14:22:33;26.10;99.90
13711;DHT22;6927;51.256;9.410;2022-07-23T14:24:58;26.30;99.90
13711;DHT22;6927;51.256;9.410;2022-07-23T14:27:25;26.40;99.90
13711;DHT22;6927;51.256;9.410;2022-07-23T14:29:51;26.60;99.90
13711;DHT22;6927;51.256;9.410;2022-07-23T14:32:16;26.70;99.90
13711;DHT22;6927;51.256;9.410;2022-07-23T14:34:42;26.70;99.90
13711;DHT22;6927;51.256;9.410;2022-07-23T14:37:09;26.80;99.90
13711;DHT22;6927;51.256;9.410;2022-07-23T14:39:36;26.90;99.90
13711;DHT22;6927;51.256;9.410;2022-07-23T14:42:03;26.90;99.90
13711;DHT22;6927;51.256;9.410;2022-07-23T14:44:29;26.90;99.90
13711;DHT22;6927;51.256;9.410;2022-07-23T14:46:54;27.00;99.90
13711;DHT22;6927;51.256;9.410;2022-07-23T14:49:20;27.10;99.90
13711;DHT22;6927;51.256;9.410;2022-07-23T14:51:46;27.00;99.90
13711;DHT22;6927;51.256;9.410;2022-07-23T14:54:11;27.00;99.90
13711;DHT22;6927;51.256;9.410;2022-07-23T14:56:37;26.90;99.90
13711;DHT22;6927;51.256;9.410;2022-07-23T14:59:04;26.80;99.90
13711;DHT22;6927;51.256;9.410;2022-07-23T15:01:29;26.70;99.90
13711;DHT22;6927;51.256;9.410;2022-07-23T15:03:55;26.60;99.90
13711;DHT22;6927;51.256;9.410;2022-07-23T15:06:21;26.40;99.90
13711;DHT22;6927;51.256;9.410;2022-07-23T15:08:46;26.50;99.90
13711;DHT22;6927;51.256;9.410;2022-07-23T15:11:12;26.60;99.90
13711;DHT22;6927;51.256;9.410;2022-07-23T15:13:38;26.60;99.90
13711;DHT22;6927;51.256;9.410;2022-07-23T15:16:04;26.50;99.90
13711;DHT22;6927;51.256;9.410;2022-07-23T15:18:30;26.50;99.90
13711;DHT22;6927;51.256;9.410;2022-07-23T15:20:56;26.60;99.90
13711;DHT22;6927;51.256;9.410;2022-07-23T15:23:22;26.60;99.90
13711;DHT22;6927;51.256;9.410;2022-07-23T15:25:47;26.50;99.90
13711;DHT22;6927;51.256;9.410;2022-07-23T15:28:13;26.50;99.90
13711;DHT22;6927;51.256;9.410;2022-07-23T15:30:38;26.40;99.90
13711;DHT22;6927;51.256;9.410;2022-07-23T15:33:05;26.40;99.90
13711;DHT22;6927;51.256;9.410;2022-07-23T15:35:31;26.40;99.90
13711;DHT22;6927;51.256;9.410;2022-07-23T15:37:57;26.50;99.90
13711;DHT22;6927;51.256;9.410;2022-07-23T15:40:22;26.60;99.90
13711;DHT22;6927;51.256;9.410;2022-07-23T15:42:48;26.60;99.90
13711;DHT22;6927;51.256;9.410;2022-07-23T15:45:14;26.60;99.90
13711;DHT22;6927;51.256;9.410;2022-07-23T15:47:40;26.50;99.90
13711;DHT22;6927;51.256;9.410;2022-07-23T15:50:07;26.40;99.90
13711;DHT22;6927;51.256;9.410;2022-07-23T15:52:35;26.40;99.90
13711;DHT22;6927;51.256;9.410;2022-07-23T15:55:00;26.40;99.90
13711;DHT22;6927;51.256;9.410;2022-07-23T15:57:26;26.30;99.90
13711;DHT22;6927;51.256;9.410;2022-07-23T15:59:51;26.20;99.90
13711;DHT22;6927;51.256;9.410;2022-07-23T16:02:17;26.30;99.90
13711;DHT22;6927;51.256;9.410;2022-07-23T16:04:44;26.40;99.90
13711;DHT22;6927;51.256;9.410;2022-07-23T16:07:10;26.40;99.90
13711;DHT22;6927;51.256;9.410;2022-07-23T16:09:35;26.30;99.90
13711;DHT22;6927;51.256;9.410;2022-07-23T16:12:01;26.20;99.90
13711;DHT22;6927;51.256;9.410;2022-07-23T16:14:26;26.30;99.90
13711;DHT22;6927;51.256;9.410;2022-07-23T16:16:52;26.30;99.90
13711;DHT22;6927;51.256;9.410;2022-07-23T16:19:17;26.30;99.90
13711;DHT22;6927;51.256;9.410;2022-07-23T16:21:43;26.30;99.90
13711;DHT22;6927;51.256;9.410;2022-07-23T16:24:09;26.30;99.90
13711;DHT22;6927;51.256;9.410;2022-07-23T16:26:34;26.20;99.90
13711;DHT22;6927;51.256;9.410;2022-07-23T16:29:00;26.20;99.90
13711;DHT22;6927;51.256;9.410;2022-07-23T16:31:25;26.00;99.90
13711;DHT22;6927;51.256;9.410;2022-07-23T16:33:52;25.80;99.90
13711;DHT22;6927;51.256;9.410;2022-07-23T16:36:18;25.50;99.90
13711;DHT22;6927;51.256;9.410;2022-07-23T16:38:45;25.40;99.90